Time;durP1;ratioP1;P1;durP2;ratioP2;P2;SDS_P1;SDS_P2;PMS_P1;PMS_P2;Temp;Humidity;BMP_temperature;BMP_pressure;BME280_temperature;BME280_humidity;BME280_pressure;Samples;Min_cycle;Max_cycle;Signal;HPM_P1;HPM_P2
2021/10/11 00:02:10;;;;;;;20.10;13.82;;;;;;;12.45;100.00;102541.50;4991228;28;20493;-53
2021/10/11 00:04:38;;;;;;;19.52;13.45;;;;;;;12.46;100.00;102536.88;4983402;28;20564;-53
2021/10/11 00:07:08;;;;;;;19.40;12.38;;;;;;;12.47;100.00;102533.09;4992002;28;20050;-55
2021/10/11 00:09:36;;;;;;;17.73;11.45;;;;;;;12.47;100.00;102533.91;4991937;28;20054;-55
2021/10/11 00:12:04;;;;;;;18.70;10.70;;;;;;;12.47;100.00;102541.28;4991337;28;20126;-53
2021/10/11 00:14:32;;;;;;;15.90;10.00;;;;;;;12.46;100.00;102551.41;4991710;28;20051;-51
2021/10/11 00:16:59;;;;;;;18.52;9.45;;;;;;;12.47;100.00;102550.31;4991199;28;20418;-53
2021/10/11 00:19:33;;;;;;;16.10;9.07;;;;;;;12.47;100.00;102552.22;4994885;28;20499;-56
2021/10/11 00:22:00;;;;;;;17.17;8.82;;;;;;;12.44;100.00;102556.28;4995274;28;20047;-55
2021/10/11 00:24:28;;;;;;;15.95;8.98;;;;;;;12.44;100.00;102549.97;4995667;28;20133;-52
2021/10/11 00:26:55;;;;;;;17.20;8.20;;;;;;;12.43;100.00;102551.84;4995485;28;20096;-55
2021/10/11 00:29:23;;;;;;;13.75;8.38;;;;;;;12.43;100.00;102548.28;4994839;28;20501;-55
2021/10/11 00:31:51;;;;;;;12.73;7.22;;;;;;;12.44;100.00;102550.81;4995505;28;20413;-53
2021/10/11 00:34:18;;;;;;;18.52;7.95;;;;;;;12.45;100.00;102559.84;4995396;28;20061;-55
2021/10/11 00:36:46;;;;;;;13.35;8.45;;;;;;;12.44;100.00;102555.44;4995369;28;20034;-53
2021/10/11 00:39:13;;;;;;;12.82;7.63;;;;;;;12.45;100.00;102562.56;4995544;28;20456;-54
2021/10/11 00:41:41;;;;;;;16.02;8.23;;;;;;;12.46;100.00;102564.22;4986408;28;20129;-55
2021/10/11 00:44:08;;;;;;;13.75;7.72;;;;;;;12.46;100.00;102558.75;4994569;28;20520;-55
2021/10/11 00:46:36;;;;;;;16.38;8.23;;;;;;;12.47;100.00;102560.44;4994645;28;20049;-54
2021/10/11 00:49:04;;;;;;;14.77;8.02;;;;;;;12.46;100.00;102569.69;4994622;28;20057;-53
2021/10/11 00:51:31;;;;;;;14.30;7.85;;;;;;;12.45;100.00;102566.13;4994930;28;20042;-52
2021/10/11 00:53:59;;;;;;;14.25;8.15;;;;;;;12.45;100.00;102568.84;4994983;28;20042;-52
2021/10/11 00:56:27;;;;;;;15.93;7.88;;;;;;;12.44;100.00;102567.22;4993304;28;20050;-49
2021/10/11 00:58:54;;;;;;;13.73;7.50;;;;;;;12.44;100.00;102555.44;4995017;28;20042;-52
2021/10/11 01:01:22;;;;;;;13.27;6.85;;;;;;;12.44;100.00;102555.44;4994672;28;20058;-50
2021/10/11 01:04:10;;;;;;;13.43;6.88;;;;;;;12.43;100.00;102554.59;4994327;28;20108;-55
2021/10/11 01:06:39;;;;;;;14.43;7.05;;;;;;;12.43;100.00;102559.22;4994435;28;20046;-54
2021/10/11 01:09:09;;;;;;;15.77;7.28;;;;;;;12.43;100.00;102548.28;4994447;28;20042;-55
2021/10/11 01:11:37;;;;;;;13.32;6.40;;;;;;;12.41;100.00;102539.50;4994719;28;20068;-55
2021/10/11 01:14:06;;;;;;;17.58;6.53;;;;;;;12.41;100.00;102542.22;4994105;28;20620;-54
2021/10/11 01:16:34;;;;;;;11.68;6.15;;;;;;;12.39;100.00;102544.38;4982228;28;20058;-54
2021/10/11 01:19:01;;;;;;;9.98;5.55;;;;;;;12.38;100.00;102546.28;4994414;28;20047;-54
2021/10/11 01:21:29;;;;;;;12.07;5.93;;;;;;;12.36;100.00;102543.81;4994639;28;21137;-54
2021/10/11 01:23:57;;;;;;;13.75;5.97;;;;;;;12.35;100.00;102542.13;4994334;28;20370;-55
2021/10/11 01:26:38;;;;;;;11.23;5.30;;;;;;;12.33;100.00;102541.50;4994187;28;20038;-54
2021/10/11 01:29:07;;;;;;;12.95;5.13;;;;;;;12.33;100.00;102537.97;4993801;28;20049;-53
2021/10/11 01:31:35;;;;;;;10.30;4.53;;;;;;;12.34;100.00;102543.19;4993790;28;20039;-54
2021/10/11 01:34:04;;;;;;;9.80;4.38;;;;;;;12.32;100.00;102544.50;4994434;28;20064;-52
2021/10/11 01:36:31;;;;;;;10.80;4.53;;;;;;;12.32;100.00;102541.78;4993669;28;20050;-53
2021/10/11 01:39:01;;;;;;;13.82;4.43;;;;;;;12.31;100.00;102540.94;4994414;28;20046;-56
2021/10/11 01:41:29;;;;;;;10.15;4.15;;;;;;;12.31;100.00;102535.47;4993648;28;20391;-55
2021/10/11 01:43:56;;;;;;;12.52;4.00;;;;;;;12.30;100.00;102527.50;4993756;28;20042;-54
2021/10/11 01:46:24;;;;;;;10.30;4.20;;;;;;;12.30;100.00;102533.81;4993619;28;20046;-54
2021/10/11 01:48:52;;;;;;;11.88;3.85;;;;;;;12.29;100.00;102534.88;4994180;28;20046;-52
2021/10/11 01:51:19;;;;;;;9.52;3.58;;;;;;;12.29;100.00;102534.88;4993735;28;20038;-49
2021/10/11 01:53:47;;;;;;;9.77;3.30;;;;;;;12.28;100.00;102535.09;5009056;28;20054;-52
2021/10/11 01:56:14;;;;;;;10.88;3.40;;;;;;;12.27;100.00;102537.03;4993337;28;20038;-54
2021/10/11 01:58:42;;;;;;;10.48;3.53;;;;;;;12.28;100.00;102546.88;4993176;28;21165;-53
2021/10/11 02:01:10;;;;;;;11.30;3.58;;;;;;;12.27;100.00;102547.94;4992819;28;20043;-54
2021/10/11 02:03:37;;;;;;;11.23;3.60;;;;;;;12.26;100.00;102551.72;4993560;28;20069;-51
2021/10/11 02:06:05;;;;;;;9.52;3.50;;;;;;;12.27;100.00;102544.38;4993821;28;20519;-54
2021/10/11 02:08:32;;;;;;;9.00;3.47;;;;;;;12.25;100.00;102547.34;4992630;28;20038;-56
2021/10/11 02:11:00;;;;;;;13.32;3.58;;;;;;;12.25;100.00;102555.56;4993458;28;20042;-53
2021/10/11 02:13:28;;;;;;;10.90;3.38;;;;;;;12.24;100.00;102553.91;4993153;28;20040;-53
2021/10/11 02:15:55;;;;;;;9.55;3.35;;;;;;;12.24;100.00;102558.50;4993378;28;20042;-52
2021/10/11 02:18:23;;;;;;;12.15;3.50;;;;;;;12.21;100.00;102551.63;4993775;28;20401;-52
2021/10/11 02:20:51;;;;;;;11.80;3.67;;;;;;;12.21;100.00;102556.25;4993281;28;20038;-52
2021/10/11 02:23:19;;;;;;;12.05;3.33;;;;;;;12.20;100.00;102560.91;4993312;28;20056;-52
2021/10/11 02:25:46;;;;;;;9.23;2.80;;;;;;;12.19;100.00;102556.47;4992943;28;20130;-52
2021/10/11 02:28:14;;;;;;;8.95;3.40;;;;;;;12.18;100.00;102557.56;4976491;28;20050;-51
2021/10/11 02:30:42;;;;;;;10.50;3.45;;;;;;;12.18;100.00;102552.09;4992960;28;20049;-51
2021/10/11 02:33:09;;;;;;;10.88;3.63;;;;;;;12.19;100.00;102548.28;4993058;28;20077;-53
2021/10/11 02:35:37;;;;;;;9.65;3.22;;;;;;;12.18;100.00;102552.09;4993238;28;20054;-51
2021/10/11 02:38:05;;;;;;;10.32;3.30;;;;;;;12.18;100.00;102551.28;4993147;28;20085;-48
2021/10/11 02:40:35;;;;;;;12.85;3.50;;;;;;;12.18;100.00;102552.09;4992562;28;20478;-52
2021/10/11 02:43:04;;;;;;;11.57;3.28;;;;;;;12.19;100.00;102544.72;4979947;28;20046;-48
2021/10/11 02:45:32;;;;;;;10.93;3.22;;;;;;;12.19;99.85;102553.75;4992864;28;20465;-52
2021/10/11 02:48:04;;;;;;;10.90;3.40;;;;;;;12.18;100.00;102549.38;4992587;28;20498;-53
2021/10/11 02:50:32;;;;;;;13.90;3.58;;;;;;;12.18;100.00;102552.09;4992925;28;20230;-54
2021/10/11 02:53:00;;;;;;;14.68;4.35;;;;;;;12.18;100.00;102560.28;4992961;28;20056;-53
2021/10/11 02:55:28;;;;;;;12.52;3.50;;;;;;;12.17;100.00;102555.06;4992635;28;20038;-55
2021/10/11 02:57:55;;;;;;;11.68;3.67;;;;;;;12.16;100.00;102559.69;4992228;28;20497;-55
2021/10/11 03:00:23;;;;;;;11.02;3.45;;;;;;;12.14;100.00;102562.66;4992477;28;20074;-55
2021/10/11 03:02:51;;;;;;;9.43;3.15;;;;;;;12.12;99.95;102564.81;4992708;28;20057;-55
2021/10/11 03:05:18;;;;;;;12.60;3.67;;;;;;;12.11;100.00;102554.94;4993093;28;20461;-54
2021/10/11 03:07:46;;;;;;;13.02;3.92;;;;;;;12.12;100.00;102553.03;4992910;28;20038;-54
2021/10/11 03:10:13;;;;;;;12.25;3.63;;;;;;;12.11;99.87;102551.38;4987082;28;20049;-55
2021/10/11 03:12:41;;;;;;;10.07;3.38;;;;;;;12.12;100.00;102542.09;4992549;28;20038;-55
2021/10/11 03:15:09;;;;;;;13.13;3.90;;;;;;;12.12;99.81;102553.88;4992267;28;20051;-55
2021/10/11 03:17:37;;;;;;;10.45;3.78;;;;;;;12.12;99.92;102548.41;4992492;28;20552;-55
2021/10/11 03:20:06;;;;;;;10.50;3.55;;;;;;;12.14;99.30;102545.44;4992261;28;20051;-55
2021/10/11 03:22:33;;;;;;;12.45;3.70;;;;;;;12.13;99.56;102549.25;4991444;28;20065;-54
2021/10/11 03:25:01;;;;;;;13.05;3.67;;;;;;;12.13;98.97;102538.31;4991970;28;20497;-54
2021/10/11 03:27:28;;;;;;;14.60;4.18;;;;;;;12.07;98.87;102529.13;4992248;28;20038;-55
2021/10/11 03:29:56;;;;;;;11.70;3.55;;;;;;;12.08;99.23;102522.63;4991930;28;20043;-50
2021/10/11 03:32:24;;;;;;;12.27;3.65;;;;;;;12.08;98.87;102519.06;4992110;28;20121;-51
2021/10/11 03:34:51;;;;;;;12.73;3.58;;;;;;;12.09;98.66;102518.00;4992630;28;20045;-52
2021/10/11 03:37:19;;;;;;;9.07;3.50;;;;;;;12.09;98.13;102527.00;4991922;28;20043;-55
2021/10/11 03:39:47;;;;;;;12.63;3.83;;;;;;;12.08;98.32;102519.06;4991289;28;20434;-52
2021/10/11 03:42:14;;;;;;;12.48;3.65;;;;;;;12.07;98.06;102528.31;4992330;28;20058;-51
2021/10/11 03:44:42;;;;;;;12.27;3.85;;;;;;;12.04;97.55;102526.06;4991955;28;20042;-54
2021/10/11 03:47:11;;;;;;;12.00;3.70;;;;;;;12.02;97.05;102526.28;4992489;28;20030;-52
2021/10/11 03:49:38;;;;;;;12.85;3.30;;;;;;;12.01;96.95;102532.84;4991906;28;20089;-54
2021/10/11 03:52:06;;;;;;;12.52;3.60;;;;;;;11.99;97.32;102525.94;4991792;28;20046;-53
2021/10/11 03:54:33;;;;;;;12.50;3.90;;;;;;;11.98;97.28;102525.13;4994440;28;20048;-48
2021/10/11 03:57:01;;;;;;;15.55;3.90;;;;;;;11.97;96.18;102525.34;4996102;28;20039;-53
2021/10/11 03:59:29;;;;;;;14.15;3.65;;;;;;;11.94;96.16;102534.84;4995783;28;20498;-53
2021/10/11 04:01:56;;;;;;;13.45;3.83;;;;;;;11.92;96.42;102536.97;4996157;28;20482;-55
2021/10/11 04:04:24;;;;;;;11.00;3.33;;;;;;;11.89;95.92;102543.75;4996207;28;20061;-56
2021/10/11 04:06:53;;;;;;;10.50;3.25;;;;;;;11.89;95.98;102543.75;4982704;28;20038;-55
2021/10/11 04:09:28;;;;;;;14.25;3.70;;;;;;;11.87;96.45;102545.88;4995116;28;20042;-55
2021/10/11 04:12:05;;;;;;;10.80;3.72;;;;;;;11.88;95.64;102541.22;4995719;28;20374;-54
2021/10/11 04:14:53;;;;;;;10.35;3.63;;;;;;;11.87;96.56;102539.56;4995915;28;20050;-55
2021/10/11 04:17:40;;;;;;;11.80;3.47;;;;;;;11.87;96.51;102540.41;4995676;28;20050;-49
2021/10/11 04:20:28;;;;;;;10.15;3.15;;;;;;;11.86;95.98;102544.19;4994106;28;20061;-54
2021/10/11 04:23:15;;;;;;;10.30;3.35;;;;;;;11.85;95.27;102542.50;4994924;28;20112;-55
2021/10/11 04:25:49;;;;;;;8.98;3.35;;;;;;;11.85;95.42;102547.97;5010380;28;20501;-51
2021/10/11 04:28:37;;;;;;;11.85;3.47;;;;;;;11.84;95.18;102546.31;4995280;28;20445;-53
2021/10/11 04:31:24;;;;;;;12.73;3.70;;;;;;;11.83;95.37;102549.25;4994305;28;20444;-54
2021/10/11 04:34:12;;;;;;;12.35;4.18;;;;;;;11.82;95.52;102545.72;4994467;28;20050;-54
2021/10/11 04:36:59;;;;;;;11.20;3.50;;;;;;;11.81;95.25;102546.78;4995020;28;20057;-53
2021/10/11 04:39:47;;;;;;;15.75;3.70;;;;;;;11.81;94.73;102546.78;4994588;28;20540;-54
2021/10/11 04:42:35;;;;;;;11.98;4.00;;;;;;;11.80;94.88;102541.56;4997064;28;20058;-51
2021/10/11 04:45:28;;;;;;;9.48;3.38;;;;;;;11.79;95.08;102540.72;4994738;28;20046;-51
2021/10/11 04:48:16;;;;;;;9.93;3.83;;;;;;;11.83;95.08;102543.81;4982870;28;20108;-54
2021/10/11 04:50:43;;;;;;;15.98;3.85;;;;;;;11.82;94.70;102545.72;4994546;28;20042;-54
2021/10/11 04:53:11;;;;;;;11.15;3.47;;;;;;;11.79;94.26;102540.72;4994949;28;21020;-50
2021/10/11 04:55:38;;;;;;;10.43;3.90;;;;;;;11.78;94.00;102541.78;4995176;28;20034;-55
2021/10/11 04:58:06;;;;;;;11.68;3.90;;;;;;;11.77;94.15;102544.75;4995003;28;20046;-55
2021/10/11 05:00:36;;;;;;;12.50;3.83;;;;;;;11.75;93.43;102541.41;4994329;28;20053;-55
2021/10/11 05:03:04;;;;;;;12.23;3.50;;;;;;;11.76;94.18;102543.06;4994503;28;20504;-57
2021/10/11 05:05:32;;;;;;;12.43;4.35;;;;;;;11.75;93.58;102546.88;4993580;28;20054;-55
2021/10/11 05:08:01;;;;;;;13.90;3.70;;;;;;;11.71;93.73;102554.69;4994694;28;20065;-57
2021/10/11 05:10:29;;;;;;;11.88;4.22;;;;;;;11.67;93.82;102548.06;4994246;28;20050;-54
2021/10/11 05:12:56;;;;;;;11.82;4.07;;;;;;;11.65;93.15;102547.44;4994931;28;20038;-54
2021/10/11 05:15:24;;;;;;;14.32;4.18;;;;;;;11.65;94.12;102550.19;4994562;28;20153;-56
2021/10/11 05:17:52;;;;;;;15.63;4.50;;;;;;;11.65;94.16;102542.00;4991611;28;20051;-54
2021/10/11 05:20:19;;;;;;;12.93;3.97;;;;;;;11.67;94.57;102542.59;4993886;28;20042;-57
2021/10/11 05:22:47;;;;;;;12.10;4.00;;;;;;;11.69;93.64;102535.00;4992492;28;20047;-52
2021/10/11 05:25:14;;;;;;;12.27;3.63;;;;;;;11.71;93.73;102535.56;4992822;28;20047;-54
2021/10/11 05:27:42;;;;;;;12.13;3.85;;;;;;;11.71;93.44;102533.69;4991241;28;20101;-53
2021/10/11 05:30:10;;;;;;;13.43;4.03;;;;;;;11.74;93.40;102529.66;4994109;28;20050;-57
2021/10/11 05:32:37;;;;;;;14.57;3.88;;;;;;;11.76;93.40;102533.00;4993961;28;20035;-57
2021/10/11 05:35:06;;;;;;;11.65;4.03;;;;;;;11.76;93.20;102533.00;4306019;28;10000190;-56
2021/10/11 05:37:37;;;;;;;14.20;4.80;;;;;;;11.75;92.59;102531.31;4991326;28;20047;-56
2021/10/11 05:40:06;;;;;;;12.18;4.25;;;;;;;11.77;92.72;102534.66;4982395;28;20129;-55
2021/10/11 05:42:34;;;;;;;11.35;4.28;;;;;;;11.76;93.02;102535.75;4990733;28;20050;-56
2021/10/11 05:45:02;;;;;;;11.57;4.20;;;;;;;11.75;92.90;102536.78;4991705;28;20054;-56
2021/10/11 05:47:30;;;;;;;12.23;4.22;;;;;;;11.73;92.77;102544.38;4991660;28;20046;-57
2021/10/11 05:49:58;;;;;;;15.32;4.50;;;;;;;11.70;91.88;102542.13;4991789;28;20042;-52
2021/10/11 05:52:25;;;;;;;13.48;4.10;;;;;;;11.65;91.93;102542.00;4990257;28;20735;-57
2021/10/11 05:54:53;;;;;;;15.10;4.43;;;;;;;11.61;92.27;102541.59;4991054;28;20085;-54
2021/10/11 05:57:20;;;;;;;18.20;4.50;;;;;;;11.59;92.62;102557.38;4990840;28;20030;-53
2021/10/11 05:59:48;;;;;;;14.43;4.60;;;;;;;11.57;92.71;102551.34;4990766;28;20088;-55
2021/10/11 06:02:15;;;;;;;15.43;4.40;;;;;;;11.57;92.57;102561.41;4991152;28;20412;-55
2021/10/11 06:04:43;;;;;;;15.65;4.68;;;;;;;11.52;92.43;102560.22;4992894;28;20520;-54
2021/10/11 06:07:11;;;;;;;14.77;4.65;;;;;;;11.49;92.05;102565.31;4991092;28;20046;-53
2021/10/11 06:09:38;;;;;;;14.13;4.63;;;;;;;11.47;92.59;102562.81;4990939;28;20038;-52
2021/10/11 06:12:06;;;;;;;15.18;3.78;;;;;;;11.47;92.33;102568.28;4991004;28;20077;-53
2021/10/11 06:14:54;;;;;;;12.23;4.18;;;;;;;11.44;92.39;102557.81;4990820;28;20433;-55
2021/10/11 06:17:21;;;;;;;10.00;3.90;;;;;;;11.43;91.89;102566.25;4990686;28;20050;-53
2021/10/11 06:19:49;;;;;;;13.63;4.32;;;;;;;11.40;92.97;102556.63;4990801;28;20046;-56
2021/10/11 06:22:16;;;;;;;12.57;3.80;;;;;;;11.38;92.39;102561.47;4990419;28;20050;-52
2021/10/11 06:24:44;;;;;;;15.00;3.88;;;;;;;11.33;92.19;102561.34;4991266;28;20117;-53
2021/10/11 06:27:12;;;;;;;9.90;3.70;;;;;;;11.31;92.06;102558.00;4991168;28;20073;-52
2021/10/11 06:29:39;;;;;;;13.43;3.78;;;;;;;11.34;92.76;102559.44;4991236;28;20052;-51
2021/10/11 06:32:07;;;;;;;15.05;4.35;;;;;;;11.38;92.91;102558.75;4992356;28;20460;-51
2021/10/11 06:34:35;;;;;;;11.80;3.80;;;;;;;11.41;91.69;102562.91;4992653;28;20050;-49
2021/10/11 06:37:02;;;;;;;13.95;3.97;;;;;;;11.42;91.87;102567.28;4993284;28;20042;-54
2021/10/11 06:39:30;;;;;;;13.50;4.00;;;;;;;11.43;92.10;102564.34;4993155;28;20042;-54
2021/10/11 06:41:58;;;;;;;15.57;4.18;;;;;;;11.44;91.41;102562.44;4993008;28;20045;-52
2021/10/11 06:44:26;;;;;;;11.05;3.95;;;;;;;11.45;92.03;102569.59;4993128;28;20092;-52
2021/10/11 06:46:53;;;;;;;12.73;3.70;;;;;;;11.46;91.26;102571.22;4992544;28;20045;-52
2021/10/11 06:49:21;;;;;;;8.15;3.38;;;;;;;11.49;91.63;102582.50;4992341;28;20436;-50
2021/10/11 06:51:49;;;;;;;29.38;7.63;;;;;;;11.60;93.65;102580.09;4992325;28;20485;-48
2021/10/11 06:54:16;;;;;;;12.98;4.15;;;;;;;11.68;92.22;102579.75;4991879;28;20101;-48
2021/10/11 06:56:44;;;;;;;12.07;3.92;;;;;;;11.69;91.05;102578.69;4992362;28;20049;-54
2021/10/11 06:59:11;;;;;;;11.40;3.78;;;;;;;11.66;90.70;102570.94;4992837;28;20046;-51
2021/10/11 07:01:39;;;;;;;13.18;4.22;;;;;;;11.63;90.57;102576.88;4992319;28;20046;-52
2021/10/11 07:04:27;;;;;;;9.77;3.72;;;;;;;11.59;91.34;102584.69;4991448;28;20046;-51
2021/10/11 07:06:54;;;;;;;13.18;4.22;;;;;;;11.56;90.65;102584.31;4992297;28;20038;-52
2021/10/11 07:09:22;;;;;;;10.75;3.15;;;;;;;11.54;90.27;102583.72;4990359;28;20049;-53
2021/10/11 07:11:50;;;;;;;13.48;4.30;;;;;;;11.54;91.17;102579.09;4992119;28;20039;-51
2021/10/11 07:14:18;;;;;;;11.13;3.47;;;;;;;11.55;91.14;102579.94;4992557;28;20057;-52
2021/10/11 07:16:50;;;;;;;14.52;4.15;;;;;;;11.54;90.87;102583.72;4991576;28;20043;-55
2021/10/11 07:19:38;;;;;;;13.52;4.25;;;;;;;11.52;90.68;102593.00;4991655;28;20061;-54
2021/10/11 07:22:25;;;;;;;14.30;4.65;;;;;;;11.53;91.37;102593.81;4990095;28;20058;-55
2021/10/11 07:25:13;;;;;;;16.23;4.80;;;;;;;11.54;91.00;102600.09;4991348;28;20049;-53
2021/10/11 07:28:00;;;;;;;16.23;4.43;;;;;;;11.55;90.75;102601.78;4991641;28;20042;-51
2021/10/11 07:30:48;;;;;;;16.60;4.00;;;;;;;11.58;90.72;102595.84;4991191;28;20490;-50
2021/10/11 07:33:35;;;;;;;11.27;3.85;;;;;;;11.59;91.03;102600.25;4991343;28;20062;-53
2021/10/11 07:36:03;;;;;;;11.38;3.85;;;;;;;11.60;90.99;102605.47;4991732;28;20046;-50
2021/10/11 07:38:31;;;;;;;9.20;3.53;;;;;;;11.62;90.32;102619.72;4992419;28;20515;-54
2021/10/11 07:40:59;;;;;;;14.27;3.58;;;;;;;11.66;90.96;102622.81;4989094;28;20046;-52
2021/10/11 07:43:27;;;;;;;11.73;3.70;;;;;;;11.65;90.24;102622.00;4981469;28;20050;-54
2021/10/11 07:46:02;;;;;;;13.35;3.45;;;;;;;11.62;90.04;102625.19;5006358;28;20047;-53
2021/10/11 07:48:30;;;;;;;9.85;3.28;;;;;;;11.61;91.17;102628.16;4992338;28;20038;-52
2021/10/11 07:50:58;;;;;;;14.45;3.83;;;;;;;11.59;91.42;102630.28;4992117;28;20042;-50
2021/10/11 07:53:26;;;;;;;13.20;3.25;;;;;;;11.61;91.17;102628.16;4991565;28;20122;-51
2021/10/11 07:55:54;;;;;;;13.10;3.35;;;;;;;11.61;91.69;102631.72;4991877;28;20053;-50
2021/10/11 07:58:22;;;;;;;13.93;3.95;;;;;;;11.61;91.35;102628.97;4992147;28;20494;-53
2021/10/11 08:00:50;;;;;;;14.93;4.03;;;;;;;11.65;91.27;102637.56;4991455;28;20043;-51
2021/10/11 08:03:17;;;;;;;15.52;3.95;;;;;;;11.67;91.15;102632.69;4991857;28;20121;-51
2021/10/11 08:05:45;;;;;;;10.25;3.10;;;;;;;11.69;91.73;102638.78;4991833;28;20182;-51
2021/10/11 08:08:13;;;;;;;13.57;4.00;;;;;;;11.71;91.66;102625.69;4991588;28;20034;-52
2021/10/11 08:10:41;;;;;;;15.38;3.83;;;;;;;11.73;91.96;102634.50;4992120;28;20041;-54
2021/10/11 08:13:08;;;;;;;12.48;3.75;;;;;;;11.73;91.57;102640.78;4991705;28;20050;-51
2021/10/11 08:15:36;;;;;;;12.48;3.35;;;;;;;11.75;91.35;102650.66;4990737;28;20046;-49
2021/10/11 08:18:03;;;;;;;13.27;3.92;;;;;;;11.76;90.93;102642.25;4991832;28;20047;-51
2021/10/11 08:20:31;;;;;;;14.93;3.80;;;;;;;11.76;90.38;102653.16;4991898;28;20074;-49
2021/10/11 08:22:59;;;;;;;15.15;3.90;;;;;;;11.76;91.04;102652.31;4991947;28;20050;-50
2021/10/11 08:25:27;;;;;;;13.32;3.72;;;;;;;11.76;90.74;102649.56;4991004;28;20045;-51
2021/10/11 08:27:54;;;;;;;12.40;3.35;;;;;;;11.78;91.18;102644.72;4979989;28;20037;-52
2021/10/11 08:30:22;;;;;;;12.75;4.18;;;;;;;11.79;90.93;102639.03;4991605;28;20497;-55
2021/10/11 08:32:49;;;;;;;10.30;3.70;;;;;;;11.82;91.59;102644.03;4978381;28;20043;-54
2021/10/11 08:35:17;;;;;;;17.23;3.60;;;;;;;11.87;92.11;102641.47;4991762;28;20910;-51
2021/10/11 08:37:44;;;;;;;11.18;3.22;;;;;;;11.91;90.94;102647.31;4991657;28;20053;-51
2021/10/11 08:40:13;;;;;;;7.88;3.00;;;;;;;11.93;91.20;102650.66;4993972;28;20058;-51
2021/10/11 08:42:41;;;;;;;14.15;3.75;;;;;;;11.93;91.76;102645.19;4995079;28;20050;-50
2021/10/11 08:45:09;;;;;;;13.43;3.60;;;;;;;11.93;91.13;102648.75;4994925;28;20047;-50
2021/10/11 08:47:36;;;;;;;11.73;3.65;;;;;;;11.94;91.17;102647.66;4994972;28;20108;-49
2021/10/11 08:50:05;;;;;;;10.05;3.10;;;;;;;11.96;91.71;102650.19;4995328;28;20047;-49
2021/10/11 08:52:33;;;;;;;11.02;3.80;;;;;;;11.97;91.89;102638.16;4994939;28;20096;-50
2021/10/11 08:55:00;;;;;;;12.10;3.78;;;;;;;11.98;91.43;102647.19;4994913;28;20132;-50
2021/10/11 08:57:32;;;;;;;11.15;3.63;;;;;;;11.99;91.26;102644.25;4994491;28;20053;-50
2021/10/11 09:00:18;;;;;;;11.18;3.40;;;;;;;12.01;90.85;102649.47;4994581;28;20042;-50
2021/10/11 09:02:57;;;;;;;11.13;3.67;;;;;;;12.02;91.72;102645.66;4995075;28;20054;-52
2021/10/11 09:05:32;;;;;;;13.32;3.45;;;;;;;12.05;90.78;102647.94;4995021;28;20054;-52
2021/10/11 09:08:01;;;;;;;10.88;4.00;;;;;;;12.07;91.06;102643.91;4994327;28;20042;-50
2021/10/11 09:10:30;;;;;;;12.68;3.90;;;;;;;12.08;90.29;102642.84;4983125;28;20053;-50
2021/10/11 09:12:58;;;;;;;11.50;3.28;;;;;;;12.10;90.30;102638.00;4994236;28;20501;-50
2021/10/11 09:15:31;;;;;;;13.55;3.50;;;;;;;12.10;90.11;102645.34;4994339;28;20112;-49
2021/10/11 09:18:04;;;;;;;14.23;4.68;;;;;;;12.11;90.96;102649.75;4994648;28;20050;-50
2021/10/11 09:20:36;;;;;;;13.07;3.92;;;;;;;12.12;91.01;102652.25;4993852;28;20263;-51
2021/10/11 09:23:04;;;;;;;17.42;3.60;;;;;;;12.13;90.69;102653.09;4994414;28;20053;-51
2021/10/11 09:25:38;;;;;;;12.07;4.13;;;;;;;12.15;90.51;102648.22;4994325;28;20493;-50
2021/10/11 09:28:07;;;;;;;11.88;3.55;;;;;;;12.16;90.69;102652.59;4994199;28;20077;-50
2021/10/11 09:30:39;;;;;;;14.50;3.80;;;;;;;12.18;91.13;102642.28;4993625;28;20073;-50
2021/10/11 09:33:17;;;;;;;15.23;3.80;;;;;;;12.20;91.17;102653.81;4994199;28;20644;-51
2021/10/11 09:35:45;;;;;;;11.95;4.07;;;;;;;12.23;91.05;102655.25;4993053;28;20042;-52
2021/10/11 09:38:27;;;;;;;11.27;3.40;;;;;;;12.23;91.24;102647.88;4994164;28;20516;-51
2021/10/11 09:40:58;;;;;;;13.43;3.63;;;;;;;12.26;92.18;102647.38;4993773;28;20042;-50
2021/10/11 09:43:27;;;;;;;14.98;3.70;;;;;;;12.31;91.44;102650.28;4994041;28;20124;-52
2021/10/11 09:45:56;;;;;;;14.38;3.85;;;;;;;12.33;91.23;102650.84;4993630;28;20074;-50
2021/10/11 09:48:23;;;;;;;14.27;3.92;;;;;;;12.32;90.66;102662.03;4994207;28;20042;-52
2021/10/11 09:50:51;;;;;;;12.00;3.78;;;;;;;12.31;90.80;102654.88;4992915;28;20035;-51
2021/10/11 09:53:19;;;;;;;16.95;3.83;;;;;;;12.31;91.23;102661.22;4994117;28;20050;-49
2021/10/11 09:55:47;;;;;;;17.30;4.88;;;;;;;12.32;91.75;102651.94;4993681;28;20073;-50
2021/10/11 09:58:14;;;;;;;11.90;3.42;;;;;;;12.34;91.88;102654.44;4993311;28;20049;-49
2021/10/11 10:00:43;;;;;;;15.23;3.75;;;;;;;12.36;92.03;102660.47;4993669;28;20054;-51
2021/10/11 10:03:13;;;;;;;16.77;4.22;;;;;;;12.36;92.47;102661.34;4993628;28;20073;-47
2021/10/11 10:05:45;;;;;;;15.15;3.80;;;;;;;12.35;93.22;102654.19;4993852;28;20053;-47
2021/10/11 10:08:15;;;;;;;13.35;4.30;;;;;;;12.40;92.74;102658.13;5008486;28;20097;-50
2021/10/11 10:10:48;;;;;;;13.35;4.18;;;;;;;12.41;92.97;102654.31;4993319;28;20039;-49
2021/10/11 10:13:18;;;;;;;14.80;4.50;;;;;;;12.42;92.86;102661.47;5007705;28;20062;-51
2021/10/11 10:15:48;;;;;;;18.25;4.32;;;;;;;12.42;93.02;102645.06;4993413;28;20049;-49
2021/10/11 10:18:17;;;;;;;14.07;4.32;;;;;;;12.44;93.10;102651.97;4993852;28;20077;-50
2021/10/11 10:21:00;;;;;;;11.73;3.92;;;;;;;12.48;93.30;102655.03;4993265;28;20054;-51
2021/10/11 10:23:36;;;;;;;14.20;3.83;;;;;;;12.48;92.70;102652.31;4993232;28;20054;-52
2021/10/11 10:26:12;;;;;;;12.32;4.30;;;;;;;12.48;93.25;102650.44;4987559;28;20051;-54
2021/10/11 10:28:47;;;;;;;;;;;;;;;12.50;93.23;102653.72;4988034;28;20047;-52
2021/10/11 10:31:30;;;;;;;15.60;3.97;;;;;;;12.52;93.53;102656.25;4980780;28;19926;-52
2021/10/11 10:33:58;;;;;;;16.90;4.60;;;;;;;12.56;93.69;102657.44;4992665;28;20117;-49
2021/10/11 10:36:27;;;;;;;18.38;5.05;;;;;;;12.56;92.91;102652.81;4992840;28;20046;-51
2021/10/11 10:39:08;;;;;;;12.48;4.18;;;;;;;12.60;92.99;102644.94;4992547;28;20505;-53
2021/10/11 10:41:38;;;;;;;9.55;3.20;;;;;;;12.64;92.63;102642.59;4992233;28;20046;-53
2021/10/11 10:44:12;;;;;;;16.92;4.90;;;;;;;12.66;92.67;102641.28;4992793;28;20060;-50
2021/10/11 10:46:56;;;;;;;15.57;4.15;;;;;;;12.70;92.88;102647.09;4992421;28;20129;-51
2021/10/11 10:49:38;;;;;;;14.75;3.92;;;;;;;12.71;92.51;102644.13;4992628;28;20057;-50
2021/10/11 10:52:12;;;;;;;14.23;3.80;;;;;;;12.71;91.88;102649.59;4992092;28;20058;-50
2021/10/11 10:54:42;;;;;;;17.83;4.65;;;;;;;12.74;91.59;102648.28;4991728;28;20038;-53
2021/10/11 10:57:14;;;;;;;16.17;4.47;;;;;;;12.72;91.23;102647.69;4992284;28;20043;-52
2021/10/11 10:59:53;;;;;;;12.38;3.83;;;;;;;12.73;91.79;102652.94;4992807;28;20050;-47
2021/10/11 11:02:28;;;;;;;;;;;;;;;12.74;91.45;102657.31;4991564;28;20054;-48
2021/10/11 11:05:02;;;;;;;19.52;3.78;;;;;;;12.74;91.85;102654.56;4992252;28;19932;-49
2021/10/11 11:07:39;;;;;;;11.13;3.00;;;;;;;12.75;91.56;102645.31;4988481;28;20073;-54
2021/10/11 11:10:12;;;;;;;;;;;;;;;12.78;91.70;102650.31;4992678;28;20525;-48
2021/10/11 11:12:42;;;;;;;12.38;3.50;;;;;;;12.81;91.69;102638.06;4992329;28;19929;-51
2021/10/11 11:15:22;;;;;;;14.40;3.50;;;;;;;12.83;91.99;102646.03;4991732;28;20073;-50
2021/10/11 11:17:51;;;;;;;10.48;3.20;;;;;;;12.82;91.28;102644.34;4992047;28;20045;-51
2021/10/11 11:20:28;;;;;;;13.35;3.30;;;;;;;12.82;90.94;102637.00;4992245;28;20105;-53
2021/10/11 11:23:00;;;;;;;13.07;3.50;;;;;;;12.82;89.98;102637.00;4991757;28;20447;-51
2021/10/11 11:25:38;;;;;;;14.82;3.60;;;;;;;12.83;89.97;102630.44;4991634;28;20042;-51
2021/10/11 11:28:08;;;;;;;13.23;3.30;;;;;;;12.86;89.80;102631.88;4992402;28;20154;-50
2021/10/11 11:30:36;;;;;;;8.70;2.83;;;;;;;12.89;90.15;102634.97;4991810;28;20060;-52
2021/10/11 11:33:06;;;;;;;11.30;3.40;;;;;;;12.94;90.78;102639.69;4992133;28;20521;-50